createdAt,value
2018-05-14T00:02:13.277Z,99.90
2018-05-14T00:04:46.957Z,99.90
2018-05-14T00:07:21.096Z,99.90
2018-05-14T00:09:53.749Z,99.90
2018-05-14T00:12:24.541Z,99.90
2018-05-14T00:14:54.609Z,99.90
2018-05-14T00:17:28.213Z,99.90
2018-05-14T00:20:02.259Z,99.90
2018-05-14T00:22:32.081Z,99.90
2018-05-14T00:25:04.452Z,99.90
2018-05-14T00:27:36.894Z,99.90
2018-05-14T00:30:08.563Z,99.90
2018-05-14T00:32:40.749Z,99.90
2018-05-14T00:35:11.064Z,99.70
2018-05-14T00:37:43.034Z,98.80
2018-05-14T00:40:16.520Z,98.80
2018-05-14T00:42:47.791Z,98.40
2018-05-14T00:45:17.896Z,98.50
2018-05-14T00:47:48.402Z,98.40
2018-05-14T00:50:18.769Z,98.10
2018-05-14T00:52:48.437Z,98.80
2018-05-14T00:55:18.790Z,98.80
2018-05-14T00:57:49.728Z,98.10
2018-05-14T01:00:20.042Z,98.10
2018-05-14T01:02:49.721Z,97.90
2018-05-14T01:05:19.253Z,97.90
2018-05-14T01:07:49.350Z,97.90
2018-05-14T01:10:20.013Z,97.30
2018-05-14T01:12:51.275Z,97.20
2018-05-14T01:15:21.957Z,97.20
2018-05-14T01:17:53.128Z,96.80
2018-05-14T01:20:22.916Z,96.10
2018-05-14T01:22:54.104Z,95.40
2018-05-14T01:25:24.731Z,95.30
2018-05-14T01:27:54.556Z,95.20
2018-05-14T01:30:29.620Z,95.00
2018-05-14T01:32:59.517Z,95.50
2018-05-14T01:35:29.205Z,95.70
2018-05-14T01:37:58.911Z,95.60
2018-05-14T01:40:28.673Z,95.90
2018-05-14T01:42:59.761Z,96.20
2018-05-14T01:45:30.259Z,96.30
2018-05-14T01:48:00.817Z,96.10
2018-05-14T01:50:31.269Z,96.30
2018-05-14T01:53:00.966Z,96.30
2018-05-14T01:55:30.983Z,97.10
2018-05-14T01:58:01.444Z,97.20
2018-05-14T02:00:31.499Z,97.20
2018-05-14T02:03:02.011Z,97.20
2018-05-14T02:05:31.671Z,97.20
2018-05-14T02:08:02.195Z,97.40
2018-05-14T02:10:31.806Z,97.40
2018-05-14T02:13:03.265Z,97.40
2018-05-14T02:15:32.982Z,97.40
2018-05-14T02:18:07.147Z,97.20
2018-05-14T02:20:37.900Z,97.90
2018-05-14T02:23:07.542Z,97.80
2018-05-14T02:25:37.391Z,98.20
2018-05-14T02:28:08.901Z,98.20
2018-05-14T02:30:41.876Z,98.30
2018-05-14T02:33:11.830Z,98.60
2018-05-14T02:35:42.998Z,98.70
2018-05-14T02:38:13.061Z,98.70
2018-05-14T02:40:43.090Z,98.70
2018-05-14T02:43:14.933Z,98.70
2018-05-14T02:45:45.114Z,98.60
2018-05-14T02:48:19.247Z,98.20
2018-05-14T02:50:49.094Z,98.20
2018-05-14T02:53:19.474Z,98.20
2018-05-14T02:55:49.345Z,98.10
2018-05-14T02:58:20.812Z,98.30
2018-05-14T03:00:54.759Z,98.60
2018-05-14T03:03:25.465Z,98.60
2018-05-14T03:05:55.862Z,98.60
2018-05-14T03:08:25.572Z,98.60
2018-05-14T03:10:55.198Z,98.70
2018-05-14T03:13:25.442Z,99.00
2018-05-14T03:15:55.195Z,98.70
2018-05-14T03:18:26.299Z,98.60
2018-05-14T03:20:55.921Z,98.60
2018-05-14T03:23:25.614Z,98.50
2018-05-14T03:25:55.503Z,98.30
2018-05-14T03:28:25.230Z,98.30
2018-05-14T03:30:55.686Z,98.10
2018-05-14T03:33:25.450Z,98.10
2018-05-14T03:35:55.017Z,98.00
2018-05-14T03:38:24.770Z,97.90
2018-05-14T03:40:55.600Z,97.80
2018-05-14T03:43:25.238Z,97.70
2018-05-14T03:45:55.297Z,97.70
2018-05-14T03:48:25.565Z,97.70
2018-05-14T03:50:55.208Z,97.80
2018-05-14T03:53:25.585Z,97.70
2018-05-14T03:55:55.189Z,97.70
2018-05-14T03:58:44.764Z,97.80
2018-05-14T04:01:15.821Z,97.80
2018-05-14T04:04:03.466Z,97.70
2018-05-14T04:06:38.219Z,97.90
2018-05-14T04:09:08.642Z,98.10
2018-05-14T04:11:47.161Z,98.10
2018-05-14T04:14:16.968Z,98.10
2018-05-14T04:16:46.813Z,98.10
2018-05-14T04:19:17.268Z,97.80
2018-05-14T04:21:46.812Z,97.10
2018-05-14T04:24:18.141Z,96.80
2018-05-14T04:26:48.007Z,96.80
2018-05-14T04:29:18.075Z,96.30
2018-05-14T04:31:47.621Z,96.10
2018-05-14T04:34:17.343Z,95.80
2018-05-14T04:36:47.891Z,96.10
2018-05-14T04:39:17.591Z,96.10
2018-05-14T04:41:47.336Z,96.10
2018-05-14T04:44:16.927Z,95.60
2018-05-14T04:46:46.525Z,95.50
2018-05-14T04:49:16.163Z,95.70
2018-05-14T04:51:45.967Z,95.70
2018-05-14T04:54:15.690Z,95.50
2018-05-14T04:56:45.488Z,95.50
2018-05-14T04:59:15.307Z,95.10
2018-05-14T05:01:45.041Z,95.20
2018-05-14T05:04:14.690Z,94.80
2018-05-14T05:06:44.321Z,94.70
2018-05-14T05:09:13.894Z,93.50
2018-05-14T05:11:43.665Z,94.10
2018-05-14T05:14:13.137Z,93.60
2018-05-14T05:16:42.831Z,94.60
2018-05-14T05:19:13.106Z,93.90
2018-05-14T05:21:44.421Z,93.80
2018-05-14T05:24:15.072Z,93.60
2018-05-14T05:26:44.748Z,93.60
2018-05-14T05:29:14.516Z,93.20
2018-05-14T05:31:44.139Z,93.10
2018-05-14T05:34:15.468Z,92.10
2018-05-14T05:36:45.425Z,92.00
2018-05-14T05:39:15.097Z,91.00
2018-05-14T05:41:44.831Z,88.50
2018-05-14T05:44:16.151Z,84.50
2018-05-14T05:46:45.812Z,84.40
2018-05-14T05:49:16.311Z,85.10
2018-05-14T05:51:48.153Z,81.50
2018-05-14T05:54:18.535Z,81.20
2018-05-14T05:56:48.236Z,79.50
2018-05-14T05:59:18.032Z,79.40
2018-05-14T06:01:47.907Z,74.70
2018-05-14T06:04:17.600Z,72.80
2018-05-14T06:06:47.299Z,71.40
2018-05-14T06:09:18.141Z,68.20
2018-05-14T06:11:47.814Z,65.20
2018-05-14T06:14:18.271Z,61.10
2018-05-14T06:16:47.795Z,61.10
2018-05-14T06:19:17.380Z,60.90
2018-05-14T06:21:47.192Z,61.30
2018-05-14T06:24:16.759Z,57.70
2018-05-14T06:26:46.626Z,56.70
2018-05-14T06:29:16.234Z,57.60
2018-05-14T06:31:45.745Z,57.90
2018-05-14T06:34:15.891Z,60.30
2018-05-14T06:36:45.552Z,59.90
2018-05-14T06:39:16.926Z,59.60
2018-05-14T06:41:46.853Z,59.50
2018-05-14T06:44:16.610Z,60.40
2018-05-14T06:46:46.306Z,59.30
2018-05-14T06:49:17.048Z,59.60
2018-05-14T06:51:46.923Z,59.40
2018-05-14T06:54:16.810Z,61.50
2018-05-14T06:56:46.559Z,61.80
2018-05-14T06:59:16.749Z,60.80
2018-05-14T07:01:47.482Z,67.30
2018-05-14T07:04:17.735Z,67.20
2018-05-14T07:06:47.669Z,69.20
2018-05-14T07:09:18.171Z,69.90
2018-05-14T07:11:48.073Z,69.90
2018-05-14T07:14:18.579Z,67.80
2018-05-14T07:16:54.745Z,71.10
2018-05-14T07:19:26.466Z,67.50
2018-05-14T07:21:56.280Z,67.40
2018-05-14T07:24:27.116Z,70.30
2018-05-14T07:26:56.954Z,70.30
2018-05-14T07:29:26.702Z,70.50
2018-05-14T07:31:56.754Z,64.70
2018-05-14T07:34:26.725Z,60.60
2018-05-14T07:36:57.661Z,56.80
2018-05-14T07:39:28.520Z,52.60
2018-05-14T07:41:59.680Z,50.80
2018-05-14T07:44:29.609Z,48.00
2018-05-14T07:47:00.258Z,47.10
2018-05-14T07:49:30.035Z,47.10
2018-05-14T07:52:00.009Z,49.20
2018-05-14T07:54:29.664Z,49.40
2018-05-14T07:57:01.064Z,49.00
2018-05-14T07:59:32.162Z,48.80
2018-05-14T08:02:03.208Z,50.00
2018-05-14T08:04:33.037Z,48.50
2018-05-14T08:07:04.433Z,48.30
2018-05-14T08:09:37.566Z,48.20
2018-05-14T08:12:08.189Z,46.40
2018-05-14T08:14:39.820Z,46.40
2018-05-14T08:17:09.972Z,45.50
2018-05-14T08:19:41.440Z,41.70
2018-05-14T08:22:11.432Z,41.60
2018-05-14T08:24:41.410Z,41.40
2018-05-14T08:27:12.504Z,43.70
2018-05-14T08:29:43.744Z,46.60
2018-05-14T08:32:13.799Z,47.70
2018-05-14T08:34:43.631Z,47.30
2018-05-14T08:37:13.749Z,47.20
2018-05-14T08:39:43.512Z,50.60
2018-05-14T08:42:13.929Z,48.60
2018-05-14T08:44:43.847Z,49.00
2018-05-14T08:47:14.541Z,47.80
2018-05-14T08:49:44.650Z,47.80
2018-05-14T08:52:15.250Z,48.00
2018-05-14T08:54:45.864Z,44.50
2018-05-14T08:57:15.792Z,44.30
2018-05-14T08:59:47.976Z,44.20
2018-05-14T09:02:18.796Z,40.80
2018-05-14T09:04:50.789Z,44.00
2018-05-14T09:07:20.678Z,43.30
2018-05-14T09:09:51.075Z,43.20
2018-05-14T09:12:20.803Z,40.20
2018-05-14T09:14:51.036Z,41.50
2018-05-14T09:17:21.782Z,42.00
2018-05-14T09:19:52.227Z,42.00
2018-05-14T09:22:22.444Z,41.40
2018-05-14T09:24:55.073Z,45.40
2018-05-14T09:27:24.988Z,45.40
2018-05-14T09:29:54.919Z,47.00
2018-05-14T09:32:25.707Z,49.60
2018-05-14T09:34:57.009Z,51.70
2018-05-14T09:37:27.639Z,52.10
2018-05-14T09:39:58.183Z,56.50
2018-05-14T09:42:34.494Z,56.50
2018-05-14T09:45:04.776Z,62.90
2018-05-14T09:54:46.564Z,69.20
2018-05-14T09:57:37.127Z,70.70
2018-05-14T10:00:07.847Z,70.50
2018-05-14T10:02:38.674Z,76.00
2018-05-14T10:05:09.477Z,77.10
2018-05-14T10:07:39.258Z,77.10
2018-05-14T10:10:09.176Z,79.30
2018-05-14T10:12:40.301Z,80.00
2018-05-14T10:15:14.633Z,78.10
2018-05-14T10:17:45.137Z,77.90
2018-05-14T10:20:18.483Z,82.80
2018-05-14T10:22:50.611Z,82.80
2018-05-14T10:25:20.769Z,80.20
2018-05-14T10:27:51.958Z,74.70
2018-05-14T10:30:22.268Z,68.00
2018-05-14T10:32:53.658Z,72.10
2018-05-14T10:35:23.550Z,72.00
2018-05-14T10:37:54.870Z,67.10
2018-05-14T10:40:24.894Z,60.10
2018-05-14T10:43:01.058Z,57.10
2018-05-14T10:45:31.883Z,56.20
2018-05-14T10:48:02.009Z,52.70
2018-05-14T10:50:32.674Z,50.40
2018-05-14T10:53:02.513Z,53.40
2018-05-14T10:55:32.989Z,50.50
2018-05-14T10:58:04.378Z,50.50
2018-05-14T11:00:34.420Z,52.60
2018-05-14T11:03:04.573Z,55.20
2018-05-14T11:05:34.274Z,57.20
2018-05-14T11:08:03.951Z,58.00
2018-05-14T11:10:34.148Z,55.30
2018-05-14T11:13:04.136Z,57.20
2018-05-14T11:15:34.171Z,58.90
2018-05-14T11:18:04.088Z,59.10
2018-05-14T11:20:33.956Z,60.10
2018-05-14T11:23:03.945Z,58.40
2018-05-14T11:25:34.051Z,56.00
2018-05-14T11:28:03.981Z,55.40
2018-05-14T11:30:35.587Z,57.00
2018-05-14T11:33:05.661Z,57.70
2018-05-14T11:35:36.849Z,51.50
2018-05-14T11:38:08.854Z,51.40
2018-05-14T11:40:38.796Z,51.90
2018-05-14T11:43:08.886Z,50.20
2018-05-14T11:45:39.978Z,50.00
2018-05-14T11:48:10.580Z,48.60
2018-05-14T11:50:40.566Z,51.20
2018-05-14T11:53:11.953Z,50.30
2018-05-14T11:55:42.567Z,50.20
2018-05-14T11:58:13.404Z,52.30
2018-05-14T12:00:45.054Z,52.00
2018-05-14T12:03:15.732Z,52.50
2018-05-14T12:05:45.618Z,52.50
2018-05-14T12:08:16.181Z,50.50
2018-05-14T12:10:45.963Z,49.90
2018-05-14T12:13:17.062Z,50.50
2018-05-14T12:15:48.027Z,53.50
2018-05-14T12:18:17.756Z,51.20
2018-05-14T12:20:48.982Z,48.60
2018-05-14T12:23:19.578Z,48.60
2018-05-14T12:25:50.170Z,48.70
2018-05-14T12:28:20.083Z,49.00
2018-05-14T12:30:51.451Z,51.00
2018-05-14T12:33:21.318Z,50.80
2018-05-14T12:35:51.648Z,52.50
2018-05-14T12:38:21.518Z,48.10
2018-05-14T12:40:51.378Z,51.40
2018-05-14T12:43:22.017Z,53.30
2018-05-14T12:45:53.755Z,52.90
2018-05-14T12:48:25.641Z,50.80
2018-05-14T12:50:56.700Z,50.80
2018-05-14T12:53:26.536Z,51.30
2018-05-14T12:55:56.469Z,54.10
2018-05-14T12:58:26.327Z,52.30
2018-05-14T13:00:57.257Z,49.40
2018-05-14T13:03:31.744Z,53.10
2018-05-14T13:06:03.238Z,53.20
2018-05-14T13:08:34.008Z,52.50
2018-05-14T13:11:04.144Z,53.40
2018-05-14T13:13:34.795Z,52.20
2018-05-14T13:16:05.979Z,52.20
2018-05-14T13:18:36.587Z,52.30
2018-05-14T13:21:06.629Z,51.10
2018-05-14T13:23:37.197Z,52.60
2018-05-14T13:26:07.817Z,52.60
2018-05-14T13:28:37.751Z,52.00
2018-05-14T13:31:07.922Z,52.20
2018-05-14T13:33:38.409Z,51.80
2018-05-14T13:36:09.299Z,50.80
2018-05-14T13:38:50.012Z,50.80
2018-05-14T13:41:19.829Z,52.40
2018-05-14T13:43:51.020Z,52.90
2018-05-14T13:46:21.596Z,53.80
2018-05-14T13:48:51.439Z,54.00
2018-05-14T13:51:22.876Z,51.80
2018-05-14T13:53:52.707Z,51.80
2018-05-14T13:56:22.847Z,51.10
2018-05-14T13:58:52.602Z,52.70
2018-05-14T14:01:23.234Z,52.50
2018-05-14T14:03:53.522Z,52.30
2018-05-14T14:06:24.966Z,53.00
2018-05-14T14:08:55.668Z,53.00
2018-05-14T14:11:40.688Z,52.30
2018-05-14T14:14:11.302Z,52.80
2018-05-14T14:16:43.169Z,53.60
2018-05-14T14:19:13.787Z,52.70
2018-05-14T14:21:45.188Z,53.50
2018-05-14T14:24:15.006Z,52.90
2018-05-14T14:26:44.753Z,52.90
2018-05-14T14:29:15.402Z,52.90
2018-05-14T14:31:49.168Z,51.60
2018-05-14T14:34:18.910Z,54.00
2018-05-14T14:36:49.445Z,54.10
2018-05-14T14:39:19.426Z,52.10
2018-05-14T14:41:49.459Z,52.80
2018-05-14T14:44:19.346Z,52.90
2018-05-14T14:46:49.206Z,53.50
2018-05-14T14:49:19.024Z,53.40
2018-05-14T14:51:49.623Z,54.00
2018-05-14T14:54:19.388Z,55.20
2018-05-14T14:56:49.127Z,54.70
2018-05-14T14:59:19.600Z,52.80
2018-05-14T15:01:54.120Z,52.80
2018-05-14T15:04:23.808Z,51.30
2018-05-14T15:06:53.333Z,50.40
2018-05-14T15:09:22.978Z,51.60
2018-05-14T15:11:52.648Z,50.80
2018-05-14T15:17:00.281Z,53.80
2018-05-14T15:19:29.842Z,55.20
2018-05-14T15:22:00.214Z,55.60
2018-05-14T15:24:30.019Z,55.50
2018-05-14T15:26:59.608Z,56.50
2018-05-14T15:29:29.211Z,56.30
2018-05-14T15:31:58.953Z,57.00
2018-05-14T15:34:28.576Z,56.90
2018-05-14T15:36:58.148Z,55.20
2018-05-14T15:39:27.953Z,57.10
2018-05-14T15:41:57.614Z,58.20
2018-05-14T15:44:27.639Z,58.70
2018-05-14T15:46:57.663Z,58.70
2018-05-14T15:49:27.415Z,58.50
2018-05-14T15:51:58.691Z,58.50
2018-05-14T15:54:28.514Z,58.50
2018-05-14T15:56:58.093Z,58.70
2018-05-14T15:59:27.695Z,59.90
2018-05-14T16:01:58.178Z,60.10
2018-05-14T16:04:27.847Z,60.20
2018-05-14T16:06:57.843Z,60.90
2018-05-14T16:09:27.409Z,62.80
2018-05-14T16:11:56.908Z,62.40
2018-05-14T16:14:26.395Z,63.50
2018-05-14T16:16:56.006Z,63.50
2018-05-14T16:19:25.918Z,63.70
2018-05-14T16:21:55.537Z,62.00
2018-05-14T16:24:25.272Z,61.40
2018-05-14T16:26:56.987Z,61.50
2018-05-14T16:29:26.577Z,61.10
2018-05-14T16:31:57.950Z,61.40
2018-05-14T16:34:28.340Z,61.00
2018-05-14T16:37:01.477Z,61.30
2018-05-14T16:39:32.566Z,61.30
2018-05-14T16:42:02.872Z,62.50
2018-05-14T16:44:34.165Z,63.50
2018-05-14T16:47:05.076Z,63.50
2018-05-14T16:49:35.882Z,64.60
2018-05-14T16:52:06.627Z,65.90
2018-05-14T16:54:38.750Z,63.80
2018-05-14T16:57:09.836Z,63.80
2018-05-14T16:59:40.168Z,64.40
2018-05-14T17:02:11.852Z,60.30
2018-05-14T17:04:42.505Z,60.30
2018-05-14T17:07:14.183Z,61.50
2018-05-14T17:09:45.165Z,62.40
2018-05-14T17:12:17.487Z,64.10
2018-05-14T17:14:48.724Z,64.10
2018-05-14T17:17:18.709Z,63.60
2018-05-14T17:19:48.871Z,64.30
2018-05-14T17:22:19.400Z,65.30
2018-05-14T17:24:51.368Z,65.60
2018-05-14T17:27:22.640Z,65.50
2018-05-14T17:29:54.925Z,65.20
2018-05-14T17:32:25.904Z,65.20
2018-05-14T17:34:56.091Z,64.90
2018-05-14T17:37:27.205Z,65.40
2018-05-14T17:39:59.480Z,64.20
2018-05-14T17:42:30.209Z,64.70
2018-05-14T17:45:03.900Z,62.80
2018-05-14T17:47:35.039Z,62.60
2018-05-14T17:50:16.956Z,63.90
2018-05-14T17:52:50.417Z,63.50
2018-05-14T17:55:34.426Z,63.10
2018-05-14T17:58:26.314Z,63.60
2018-05-14T18:01:03.007Z,63.70
2018-05-14T18:03:33.924Z,64.00
2018-05-14T18:06:05.242Z,64.60
2018-05-14T18:08:35.973Z,63.50
2018-05-14T18:11:06.250Z,63.60
2018-05-14T18:13:36.422Z,63.70
2018-05-14T18:16:06.751Z,63.40
2018-05-14T18:18:38.795Z,63.20
2018-05-14T18:21:12.993Z,63.70
2018-05-14T18:23:48.234Z,65.30
2018-05-14T18:26:19.297Z,64.70
2018-05-14T18:28:50.493Z,65.00
2018-05-14T18:31:28.358Z,65.10
2018-05-14T18:34:04.257Z,65.10
2018-05-14T18:36:34.060Z,65.10
2018-05-14T18:39:03.750Z,66.10
2018-05-14T18:41:33.365Z,66.50
2018-05-14T18:44:03.509Z,66.70
2018-05-14T18:46:33.292Z,66.80
2018-05-14T18:49:03.964Z,66.80
2018-05-14T18:51:33.487Z,66.80
2018-05-14T18:54:03.176Z,67.60
2018-05-14T18:56:34.782Z,68.10
2018-05-14T18:59:04.494Z,67.90
2018-05-14T19:01:35.014Z,68.70
2018-05-14T19:04:04.633Z,69.20
2018-05-14T19:06:34.278Z,69.70
2018-05-14T19:09:04.415Z,69.80
2018-05-14T19:11:39.965Z,70.00
2018-05-14T19:14:09.772Z,71.60
2018-05-14T19:16:46.113Z,71.80
2018-05-14T19:19:15.803Z,72.70
2018-05-14T19:21:45.447Z,73.80
2018-05-14T19:24:15.167Z,74.20
2018-05-14T19:26:45.027Z,74.70
2018-05-14T19:29:20.904Z,75.60
2018-05-14T19:31:51.222Z,75.90
2018-05-14T19:34:26.659Z,75.70
2018-05-14T19:36:57.677Z,77.70
2018-05-14T19:42:28.269Z,78.30
2018-05-14T19:44:57.907Z,79.00
2018-05-14T19:47:27.478Z,79.60
2018-05-14T19:49:57.084Z,79.50
2018-05-14T19:52:26.664Z,79.80
2018-05-14T19:54:57.424Z,81.00
2018-05-14T19:57:27.918Z,80.90
2018-05-14T19:59:57.923Z,81.20
2018-05-14T20:02:27.766Z,81.20
2018-05-14T20:04:59.027Z,81.00
2018-05-14T20:07:39.989Z,81.00
2018-05-14T20:10:09.653Z,80.70
2018-05-14T20:12:39.847Z,80.70
2018-05-14T20:15:10.923Z,81.00
2018-05-14T20:17:41.329Z,81.50
2018-05-14T20:20:16.856Z,80.50
2018-05-14T20:22:51.534Z,80.20
2018-05-14T20:25:23.067Z,80.50
2018-05-14T20:27:53.121Z,80.60
2018-05-14T20:30:23.807Z,80.70
2018-05-14T20:32:53.345Z,80.70
2018-05-14T20:35:23.063Z,80.70
2018-05-14T20:37:52.858Z,81.70
2018-05-14T20:40:23.469Z,82.00
2018-05-14T20:42:54.126Z,82.50
2018-05-14T20:45:23.958Z,82.90
2018-05-14T20:47:53.731Z,83.30
2018-05-14T20:50:23.542Z,83.60
2018-05-14T20:52:56.137Z,83.90
2018-05-14T20:55:26.932Z,84.20
2018-05-14T20:57:57.080Z,84.20
2018-05-14T21:00:28.602Z,84.30
2018-05-14T21:03:00.917Z,84.70
2018-05-14T21:05:30.670Z,85.50
2018-05-14T21:08:00.353Z,86.20
2018-05-14T21:10:29.929Z,85.60
2018-05-14T21:12:59.537Z,85.70
2018-05-14T21:15:33.028Z,86.30
2018-05-14T21:18:05.381Z,86.30
2018-05-14T21:20:35.358Z,86.30
2018-05-14T21:23:05.780Z,87.00
2018-05-14T21:25:35.749Z,86.90
2018-05-14T21:28:07.000Z,87.00
2018-05-14T21:30:40.539Z,86.30
2018-05-14T21:33:10.148Z,86.80
2018-05-14T21:35:40.135Z,86.80
2018-05-14T21:38:10.614Z,87.00
2018-05-14T21:40:46.915Z,86.90
2018-05-14T21:43:20.168Z,87.00
2018-05-14T21:45:50.793Z,87.90
2018-05-14T21:48:22.236Z,87.80
2018-05-14T21:50:52.777Z,87.80
2018-05-14T21:53:26.236Z,88.00
2018-05-14T21:56:01.854Z,87.90
2018-05-14T21:58:38.940Z,88.20
2018-05-14T22:01:10.043Z,88.20
2018-05-14T22:03:40.042Z,88.20
2018-05-14T22:06:15.620Z,89.40
2018-05-14T22:08:45.983Z,90.10
2018-05-14T22:11:17.504Z,89.10
2018-05-14T22:13:52.955Z,88.20
2018-05-14T22:16:27.339Z,88.10
2018-05-14T22:19:05.121Z,87.60
2018-05-14T22:21:35.345Z,87.50
2018-05-14T22:24:04.988Z,87.60
2018-05-14T22:26:35.150Z,88.00
2018-05-14T22:29:13.767Z,88.20
2018-05-14T22:31:44.647Z,87.90
2018-05-14T22:34:14.722Z,87.70
2018-05-14T22:36:46.167Z,87.40
2018-05-14T22:39:16.033Z,86.30
2018-05-14T22:41:45.758Z,85.50
2018-05-14T22:44:15.543Z,84.90
2018-05-14T22:46:45.686Z,84.50
2018-05-14T22:49:16.302Z,84.30
2018-05-14T22:51:45.889Z,84.60
2018-05-14T22:57:13.611Z,85.70
2018-05-14T22:59:43.494Z,85.70
2018-05-14T23:02:34.684Z,86.10
2018-05-14T23:05:04.465Z,85.60
2018-05-14T23:07:34.309Z,85.90
2018-05-14T23:10:04.473Z,86.60
2018-05-14T23:12:34.063Z,87.50
2018-05-14T23:15:03.741Z,88.70
2018-05-14T23:17:33.487Z,89.20
2018-05-14T23:20:04.137Z,88.70
2018-05-14T23:22:42.262Z,88.60
2018-05-14T23:25:11.972Z,88.60
2018-05-14T23:27:48.082Z,88.50
2018-05-14T23:30:24.421Z,88.90
2018-05-14T23:32:59.194Z,89.10
2018-05-14T23:35:33.479Z,89.10
2018-05-14T23:38:04.527Z,90.00
2018-05-14T23:40:35.816Z,90.00
2018-05-14T23:43:06.542Z,90.20
2018-05-14T23:45:36.923Z,90.20
2018-05-14T23:48:07.557Z,90.30
2018-05-14T23:50:39.010Z,90.30
2018-05-14T23:53:12.041Z,90.40
2018-05-14T23:55:42.745Z,90.40
2018-05-14T23:58:14.013Z,90.40
